createdAt,value
2022-08-10T00:03:30.277Z,14.30
2022-08-10T00:06:05.973Z,14.30
2022-08-10T00:08:39.661Z,14.30
2022-08-10T00:13:50.518Z,14.20
2022-08-10T00:16:25.557Z,14.20
2022-08-10T00:19:04.240Z,14.20
2022-08-10T00:27:51.898Z,14.10
2022-08-10T00:29:55.063Z,13.90
2022-08-10T00:32:29.815Z,13.90
2022-08-10T00:35:04.521Z,13.80
2022-08-10T00:37:36.117Z,13.80
2022-08-10T00:40:09.939Z,13.80
2022-08-10T00:42:46.333Z,13.70
2022-08-10T00:45:17.538Z,13.80
2022-08-10T00:47:52.544Z,13.70
2022-08-10T00:52:59.612Z,13.50
2022-08-10T00:56:38.408Z,13.50
2022-08-10T00:58:31.191Z,13.40
2022-08-10T01:01:05.915Z,13.40
2022-08-10T01:04:40.027Z,13.40
2022-08-10T01:06:37.955Z,13.40
2022-08-10T01:09:16.596Z,13.40
2022-08-10T01:12:40.842Z,13.40
2022-08-10T01:14:51.225Z,13.40
2022-08-10T01:17:23.290Z,13.40
2022-08-10T01:20:30.285Z,13.40
2022-08-10T01:23:14.599Z,13.50
2022-08-10T01:26:11.562Z,13.40
2022-08-10T01:28:55.262Z,13.30
2022-08-10T01:31:29.444Z,13.30
2022-08-10T01:34:02.977Z,13.20
2022-08-10T01:36:37.075Z,13.20
2022-08-10T01:39:08.819Z,13.10
2022-08-10T01:41:45.844Z,13.10
2022-08-10T01:44:20.163Z,13.00
2022-08-10T01:46:56.862Z,13.00
2022-08-10T01:49:28.882Z,13.00
2022-08-10T01:52:01.820Z,13.10
2022-08-10T01:54:35.072Z,13.00
2022-08-10T01:57:06.565Z,13.00
2022-08-10T02:02:10.640Z,13.10
2022-08-10T02:04:41.170Z,13.00
2022-08-10T02:07:13.141Z,13.00
2022-08-10T02:09:43.615Z,12.90
2022-08-10T02:14:43.329Z,12.90
2022-08-10T02:17:59.838Z,12.90
2022-08-10T02:20:06.720Z,13.00
2022-08-10T02:22:45.928Z,13.00
2022-08-10T02:25:41.574Z,13.00
2022-08-10T02:28:05.360Z,13.00
2022-08-10T02:30:35.126Z,12.90
2022-08-10T02:33:05.845Z,12.90
2022-08-10T02:35:53.746Z,12.90
2022-08-10T02:38:57.451Z,12.80
2022-08-10T02:45:15.498Z,12.80
2022-08-10T02:45:29.047Z,12.80
2022-08-10T02:46:59.999Z,12.70
2022-08-10T02:49:34.011Z,12.70
2022-08-10T02:52:06.451Z,12.70
2022-08-10T02:54:39.861Z,12.70
2022-08-10T02:57:11.301Z,12.70
2022-08-10T02:59:43.162Z,12.60
2022-08-10T03:02:13.447Z,12.70
2022-08-10T03:04:55.378Z,12.70
2022-08-10T03:07:43.598Z,12.70
2022-08-10T03:10:17.485Z,12.70
2022-08-10T03:12:48.798Z,12.70
2022-08-10T03:15:19.645Z,12.70
2022-08-10T03:17:57.544Z,12.80
2022-08-10T03:20:36.504Z,12.70
2022-08-10T03:23:09.040Z,12.70
2022-08-10T03:25:38.065Z,12.60
2022-08-10T03:28:07.061Z,12.60
2022-08-10T03:30:36.174Z,12.70
2022-08-10T03:33:06.018Z,12.70
2022-08-10T03:35:36.246Z,12.60
2022-08-10T03:38:04.946Z,12.70
2022-08-10T03:40:46.475Z,12.70
2022-08-10T03:43:18.022Z,12.70
2022-08-10T03:45:55.091Z,12.80
2022-08-10T03:48:32.107Z,12.80
2022-08-10T03:51:15.855Z,12.80
2022-08-10T03:54:04.539Z,12.80
2022-08-10T03:56:34.748Z,12.80
2022-08-10T03:59:03.480Z,12.80
2022-08-10T04:02:45.243Z,12.90
2022-08-10T04:04:24.779Z,12.90
2022-08-10T04:06:57.059Z,13.00
2022-08-10T04:09:43.144Z,13.00
2022-08-10T04:12:16.374Z,13.10
2022-08-10T04:17:18.834Z,13.30
2022-08-10T04:20:09.048Z,13.40
2022-08-10T04:22:39.119Z,13.50
2022-08-10T04:25:09.382Z,13.50
2022-08-10T04:27:38.319Z,13.60
2022-08-10T04:30:07.323Z,13.70
2022-08-10T04:32:37.649Z,13.80
2022-08-10T04:35:10.146Z,13.90
2022-08-10T04:37:47.004Z,13.90
2022-08-10T04:40:25.188Z,14.00
2022-08-10T04:43:07.458Z,14.00
2022-08-10T04:45:49.471Z,14.20
2022-08-10T04:48:42.551Z,14.30
2022-08-10T04:51:11.159Z,14.40
2022-08-10T04:54:05.809Z,14.50
2022-08-10T04:56:36.172Z,14.60
2022-08-10T04:59:06.292Z,14.70
2022-08-10T05:02:12.465Z,14.80
2022-08-10T05:04:37.109Z,14.90
2022-08-10T05:07:08.152Z,15.00
2022-08-10T05:10:02.146Z,15.10
2022-08-10T05:12:27.405Z,15.10
2022-08-10T05:14:56.155Z,15.30
2022-08-10T05:17:24.884Z,15.30
2022-08-10T05:20:02.147Z,15.40
2022-08-10T05:22:36.745Z,15.50
2022-08-10T05:25:08.170Z,15.50
2022-08-10T05:27:36.792Z,15.70
2022-08-10T05:30:05.747Z,15.80
2022-08-10T05:32:56.435Z,15.90
2022-08-10T05:35:23.474Z,15.90
2022-08-10T05:38:09.004Z,16.00
2022-08-10T05:40:47.357Z,16.10
2022-08-10T05:43:17.906Z,16.30
2022-08-10T05:46:18.285Z,16.40
2022-08-10T05:48:58.084Z,16.40
2022-08-10T05:51:24.589Z,16.60
2022-08-10T05:54:01.206Z,16.70
2022-08-10T05:56:54.726Z,16.80
2022-08-10T06:00:31.076Z,17.00
2022-08-10T06:02:34.099Z,17.10
2022-08-10T06:05:08.159Z,17.20
2022-08-10T06:07:38.962Z,17.40
2022-08-10T06:10:10.650Z,17.50
2022-08-10T06:12:55.119Z,17.60
2022-08-10T06:15:51.878Z,17.70
2022-08-10T06:18:14.573Z,17.80
2022-08-10T06:20:43.453Z,17.90
2022-08-10T06:23:12.526Z,18.00
2022-08-10T06:26:08.762Z,18.10
2022-08-10T06:28:33.822Z,18.20
2022-08-10T06:31:04.120Z,18.40
2022-08-10T06:36:02.673Z,18.40
2022-08-10T06:43:30.106Z,18.60
2022-08-10T06:46:06.828Z,18.70
2022-08-10T06:48:39.071Z,18.70
2022-08-10T06:51:09.158Z,18.80
2022-08-10T06:53:54.020Z,19.00
2022-08-10T06:56:36.520Z,19.10
2022-08-10T06:59:13.320Z,19.20
2022-08-10T07:01:55.449Z,19.30
2022-08-10T07:04:33.300Z,19.30
2022-08-10T07:07:04.535Z,19.40
2022-08-10T07:12:07.842Z,19.60
2022-08-10T07:14:39.945Z,19.70
2022-08-10T07:17:15.707Z,19.80
2022-08-10T07:19:50.213Z,19.80
2022-08-10T07:23:01.206Z,19.90
2022-08-10T07:25:13.167Z,19.90
2022-08-10T07:28:00.901Z,19.80
2022-08-10T07:30:31.697Z,19.70
2022-08-10T07:33:03.575Z,19.70
2022-08-10T07:35:42.499Z,19.90
2022-08-10T07:38:17.105Z,20.10
2022-08-10T07:40:46.378Z,20.30
2022-08-10T07:45:43.852Z,20.30
2022-08-10T07:48:16.220Z,20.30
2022-08-10T07:50:46.284Z,20.30
2022-08-10T07:53:18.762Z,20.30
2022-08-10T07:56:03.448Z,20.00
2022-08-10T07:58:39.542Z,20.00
2022-08-10T08:01:16.115Z,20.00
2022-08-10T08:04:05.758Z,20.00
2022-08-10T08:06:39.599Z,20.20
2022-08-10T08:09:08.444Z,20.40
2022-08-10T08:11:37.754Z,20.60
2022-08-10T08:14:07.824Z,20.80
2022-08-10T08:16:37.577Z,20.90
2022-08-10T08:24:06.417Z,21.10
2022-08-10T08:24:46.975Z,20.80
2022-08-10T08:27:16.981Z,20.70
2022-08-10T08:29:46.084Z,20.60
2022-08-10T08:32:17.173Z,20.60
2022-08-10T08:34:50.210Z,20.70
2022-08-10T08:38:28.779Z,21.00
2022-08-10T08:40:12.938Z,21.00
2022-08-10T08:42:57.132Z,21.40
2022-08-10T08:45:29.726Z,21.40
2022-08-10T08:48:25.499Z,21.50
2022-08-10T08:51:02.816Z,21.60
2022-08-10T08:54:03.054Z,21.80
2022-08-10T08:56:28.549Z,22.10
2022-08-10T08:59:12.454Z,22.60
2022-08-10T09:01:51.353Z,23.00
2022-08-10T09:04:28.735Z,23.10
2022-08-10T09:07:59.149Z,23.20
2022-08-10T09:12:39.806Z,23.10
2022-08-10T09:15:10.465Z,23.00
2022-08-10T09:18:03.751Z,22.60
2022-08-10T09:20:35.981Z,22.60
2022-08-10T09:23:10.923Z,22.20
2022-08-10T09:25:45.526Z,22.40
2022-08-10T09:28:21.603Z,22.70
2022-08-10T09:31:20.681Z,22.70
2022-08-10T09:36:27.870Z,22.50
2022-08-10T09:36:44.093Z,22.20
2022-08-10T09:40:56.505Z,22.20
2022-08-10T09:42:14.743Z,21.90
2022-08-10T09:44:58.474Z,21.60
2022-08-10T09:47:59.959Z,21.50
2022-08-10T09:50:47.611Z,21.50
2022-08-10T09:53:21.723Z,21.60
2022-08-10T09:56:17.550Z,21.80
2022-08-10T09:58:47.838Z,22.20
2022-08-10T10:01:57.718Z,22.80
2022-08-10T10:04:12.847Z,23.10
2022-08-10T10:06:45.180Z,23.80
2022-08-10T10:09:18.924Z,24.30
2022-08-10T10:12:09.314Z,24.70
2022-08-10T10:15:01.877Z,24.70
2022-08-10T10:17:38.323Z,24.60
2022-08-10T10:20:10.563Z,24.20
2022-08-10T10:22:53.904Z,23.90
2022-08-10T10:25:49.830Z,23.60
2022-08-10T10:28:21.651Z,23.20
2022-08-10T10:30:55.593Z,23.20
2022-08-10T10:33:30.287Z,23.10
2022-08-10T10:36:02.175Z,23.20
2022-08-10T10:38:33.649Z,23.20
2022-08-10T10:41:09.389Z,23.10
2022-08-10T10:43:46.114Z,22.90
2022-08-10T10:46:23.247Z,22.60
2022-08-10T10:48:55.551Z,22.50
2022-08-10T10:51:28.286Z,22.60
2022-08-10T10:54:02.890Z,23.00
2022-08-10T10:56:36.216Z,23.30
2022-08-10T10:59:33.438Z,23.60
2022-08-10T11:02:06.525Z,24.20
2022-08-10T11:04:38.017Z,24.80
2022-08-10T11:07:13.170Z,25.50
2022-08-10T11:10:06.044Z,25.60
2022-08-10T11:12:40.684Z,25.30
2022-08-10T11:17:47.983Z,24.20
2022-08-10T11:20:18.961Z,24.10
2022-08-10T11:22:51.644Z,23.60
2022-08-10T11:25:23.361Z,23.60
2022-08-10T11:27:56.940Z,23.60
2022-08-10T11:30:28.622Z,23.70
2022-08-10T11:33:08.437Z,23.80
2022-08-10T11:35:39.758Z,23.90
2022-08-10T11:38:34.264Z,24.00
2022-08-10T11:42:09.116Z,24.00
2022-08-10T11:43:58.190Z,24.20
2022-08-10T11:46:31.747Z,24.50
2022-08-10T11:49:04.984Z,24.70
2022-08-10T11:51:39.203Z,24.60
2022-08-10T11:54:10.155Z,24.50
2022-08-10T11:56:45.685Z,24.60
2022-08-10T11:59:32.762Z,24.70
2022-08-10T12:02:01.703Z,24.80
2022-08-10T12:04:32.800Z,24.70
2022-08-10T12:10:03.617Z,24.70
2022-08-10T12:10:04.378Z,25.10
2022-08-10T12:12:45.807Z,25.30
2022-08-10T12:15:17.927Z,25.70
2022-08-10T12:17:49.334Z,26.10
2022-08-10T12:20:25.874Z,26.10
2022-08-10T12:22:56.885Z,26.70
2022-08-10T12:25:56.926Z,28.50
2022-08-10T12:28:19.507Z,29.00
2022-08-10T12:30:51.272Z,29.00
2022-08-10T12:33:22.789Z,29.40
2022-08-10T12:36:17.410Z,30.00
2022-08-10T12:38:51.767Z,30.40
2022-08-10T12:41:43.725Z,30.40
2022-08-10T12:44:12.936Z,30.60
2022-08-10T12:46:43.253Z,30.00
2022-08-10T12:49:14.866Z,29.80
2022-08-10T12:51:49.834Z,29.50
2022-08-10T12:54:31.751Z,29.40
2022-08-10T12:57:02.960Z,28.90
2022-08-10T12:59:32.787Z,29.10
2022-08-10T13:04:42.394Z,27.40
2022-08-10T13:08:25.021Z,27.20
2022-08-10T13:10:05.362Z,26.60
2022-08-10T13:12:40.361Z,26.60
2022-08-10T13:15:43.268Z,25.70
2022-08-10T13:18:06.032Z,25.50
2022-08-10T13:20:50.909Z,25.20
2022-08-10T13:23:22.352Z,25.00
2022-08-10T13:25:52.818Z,24.90
2022-08-10T13:28:36.510Z,24.80
2022-08-10T13:31:11.552Z,24.80
2022-08-10T13:34:39.122Z,24.80
2022-08-10T13:36:36.641Z,24.60
2022-08-10T13:39:07.378Z,24.60
2022-08-10T13:41:38.907Z,24.50
2022-08-10T13:44:08.496Z,24.50
2022-08-10T13:46:40.367Z,24.40
2022-08-10T13:49:11.081Z,24.30
2022-08-10T13:51:53.945Z,24.30
2022-08-10T13:54:30.289Z,24.10
2022-08-10T13:56:59.249Z,24.20
2022-08-10T14:00:35.305Z,24.40
2022-08-10T14:02:23.947Z,24.60
2022-08-10T14:04:53.542Z,25.20
2022-08-10T14:07:23.246Z,25.60
2022-08-10T14:09:53.387Z,25.60
2022-08-10T14:12:31.789Z,25.60
2022-08-10T14:15:03.551Z,25.20
2022-08-10T14:17:33.208Z,25.10
2022-08-10T14:20:02.603Z,24.70
2022-08-10T14:22:34.147Z,24.40
2022-08-10T14:25:11.096Z,23.90
2022-08-10T14:28:02.350Z,23.80
2022-08-10T14:30:31.292Z,23.70
2022-08-10T14:33:04.260Z,23.70
2022-08-10T14:36:21.673Z,23.70
2022-08-10T14:38:25.577Z,23.90
2022-08-10T14:40:58.092Z,23.90
2022-08-10T14:43:29.185Z,24.00
2022-08-10T14:46:01.438Z,24.00
2022-08-10T14:48:33.226Z,24.00
2022-08-10T14:51:02.886Z,24.00
2022-08-10T14:53:34.692Z,24.00
2022-08-10T14:56:07.286Z,23.90
2022-08-10T14:58:38.495Z,23.90
2022-08-10T15:01:08.785Z,24.00
2022-08-10T15:03:58.803Z,24.10
2022-08-10T15:06:31.303Z,24.10
2022-08-10T15:09:05.433Z,24.30
2022-08-10T15:12:13.652Z,24.60
2022-08-10T15:14:42.640Z,24.80
2022-08-10T15:17:13.506Z,24.90
2022-08-10T15:20:02.819Z,25.10
2022-08-10T15:22:49.941Z,25.30
2022-08-10T15:25:25.110Z,25.40
2022-08-10T15:28:04.985Z,25.20
2022-08-10T15:30:39.568Z,25.00
2022-08-10T15:34:02.002Z,24.90
2022-08-10T15:39:05.007Z,24.70
2022-08-10T15:41:59.168Z,24.60
2022-08-10T15:44:43.647Z,24.50
2022-08-10T15:47:15.210Z,24.50
2022-08-10T15:49:46.965Z,24.40
2022-08-10T15:52:40.100Z,24.40
2022-08-10T15:55:43.288Z,24.30
2022-08-10T15:58:02.430Z,24.40
2022-08-10T16:00:33.642Z,24.40
2022-08-10T16:03:06.020Z,24.30
2022-08-10T16:06:01.412Z,24.30
2022-08-10T16:08:56.087Z,24.30
2022-08-10T16:11:37.922Z,24.30
2022-08-10T16:14:09.129Z,24.30
2022-08-10T16:16:39.950Z,24.40
2022-08-10T16:19:22.237Z,24.40
2022-08-10T16:22:01.002Z,24.60
2022-08-10T16:24:34.167Z,24.70
2022-08-10T16:27:06.589Z,24.80
2022-08-10T16:29:54.515Z,24.90
2022-08-10T16:32:26.818Z,25.00
2022-08-10T16:34:56.489Z,25.10
2022-08-10T16:37:58.409Z,25.10
2022-08-10T16:40:21.165Z,25.30
2022-08-10T16:42:50.367Z,25.60
2022-08-10T16:45:21.110Z,25.70
2022-08-10T16:47:52.093Z,25.80
2022-08-10T16:50:23.587Z,25.90
2022-08-10T16:52:53.555Z,26.30
2022-08-10T16:55:24.647Z,26.70
2022-08-10T16:58:13.504Z,26.90
2022-08-10T17:00:42.907Z,27.60
2022-08-10T17:06:11.541Z,29.20
2022-08-10T17:08:48.581Z,29.00
2022-08-10T17:11:18.422Z,28.60
2022-08-10T17:13:47.250Z,27.70
2022-08-10T17:16:17.757Z,26.70
2022-08-10T17:18:50.949Z,25.80
2022-08-10T17:21:31.509Z,25.10
2022-08-10T17:24:02.764Z,24.70
2022-08-10T17:26:39.663Z,24.40
2022-08-10T17:29:17.153Z,24.10
2022-08-10T17:32:11.277Z,23.90
2022-08-10T17:40:13.485Z,23.40
2022-08-10T17:42:53.290Z,23.20
2022-08-10T17:45:48.851Z,23.00
2022-08-10T17:48:12.508Z,22.80
2022-08-10T17:50:46.840Z,22.50
2022-08-10T17:53:18.422Z,22.30
2022-08-10T17:55:50.577Z,22.00
2022-08-10T17:58:21.225Z,21.70
2022-08-10T18:00:51.700Z,21.40
2022-08-10T18:03:30.660Z,21.10
2022-08-10T18:06:02.663Z,20.80
2022-08-10T18:08:36.964Z,20.50
2022-08-10T18:11:12.844Z,20.20
2022-08-10T18:13:55.791Z,19.90
2022-08-10T18:16:32.413Z,19.70
2022-08-10T18:19:08.715Z,19.40
2022-08-10T18:21:40.015Z,19.20
2022-08-10T18:24:16.461Z,19.00
2022-08-10T18:26:50.808Z,18.80
2022-08-10T18:29:23.039Z,18.60
2022-08-10T18:31:57.503Z,18.40
2022-08-10T18:34:26.858Z,18.20
2022-08-10T18:36:56.253Z,18.00
2022-08-10T18:39:27.599Z,17.80
2022-08-10T18:42:06.078Z,17.70
2022-08-10T18:44:52.221Z,17.60
2022-08-10T18:47:24.702Z,17.40
2022-08-10T18:50:00.467Z,17.40
2022-08-10T18:52:31.055Z,17.20
2022-08-10T18:55:13.973Z,17.10
2022-08-10T18:57:58.227Z,17.00
2022-08-10T19:00:28.548Z,16.90
2022-08-10T19:03:11.291Z,16.80
2022-08-10T19:05:49.268Z,16.70
2022-08-10T19:08:31.304Z,16.60
2022-08-10T19:11:03.689Z,16.60
2022-08-10T19:13:34.859Z,16.50
2022-08-10T19:16:08.461Z,16.40
2022-08-10T19:18:39.431Z,16.30
2022-08-10T19:21:17.537Z,16.30
2022-08-10T19:23:55.485Z,16.20
2022-08-10T19:26:44.722Z,16.20
2022-08-10T19:30:11.910Z,16.20
2022-08-10T19:32:24.831Z,16.20
2022-08-10T19:34:59.362Z,16.10
2022-08-10T19:37:32.455Z,16.10
2022-08-10T19:40:40.839Z,16.00
2022-08-10T19:43:30.753Z,15.90
2022-08-10T19:46:11.895Z,15.90
2022-08-10T19:48:44.675Z,15.90
2022-08-10T19:51:15.784Z,15.90
2022-08-10T19:53:52.066Z,15.90
2022-08-10T19:56:34.090Z,15.90
2022-08-10T19:59:09.556Z,16.00
2022-08-10T20:01:55.604Z,16.00
2022-08-10T20:04:29.807Z,16.00
2022-08-10T20:07:07.544Z,16.00
2022-08-10T20:09:39.871Z,16.00
2022-08-10T20:12:09.441Z,16.00
2022-08-10T20:17:09.794Z,16.00
2022-08-10T20:19:52.840Z,15.90
2022-08-10T20:22:30.478Z,15.90
2022-08-10T20:27:59.028Z,15.90
2022-08-10T20:32:57.722Z,15.80
2022-08-10T20:38:03.384Z,15.70
2022-08-10T20:40:40.026Z,15.70
2022-08-10T20:43:12.497Z,15.60
2022-08-10T20:48:34.436Z,15.50
2022-08-10T20:51:04.756Z,15.40
2022-08-10T20:53:35.716Z,15.30
2022-08-10T20:56:13.951Z,15.30
2022-08-10T20:58:52.081Z,15.30
2022-08-10T21:01:26.232Z,15.20
2022-08-10T21:04:18.815Z,15.20
2022-08-10T21:07:04.138Z,15.20
2022-08-10T21:09:50.142Z,15.10
2022-08-10T21:12:36.554Z,15.10
2022-08-10T21:15:13.297Z,15.10
2022-08-10T21:17:47.791Z,15.10
2022-08-10T21:20:30.680Z,15.00
2022-08-10T21:23:05.076Z,15.00
2022-08-10T21:25:40.503Z,15.00
2022-08-10T21:28:13.494Z,15.10
2022-08-10T21:30:54.942Z,15.10
2022-08-10T21:33:26.333Z,15.10
2022-08-10T21:36:01.492Z,15.00
2022-08-10T21:38:35.268Z,15.00
2022-08-10T21:41:56.416Z,14.90
2022-08-10T21:45:01.066Z,14.90
2022-08-10T21:48:15.680Z,14.70
2022-08-10T21:51:05.975Z,14.70
2022-08-10T21:53:54.609Z,14.70
2022-08-10T21:56:46.064Z,14.60
2022-08-10T21:59:38.971Z,14.60
2022-08-10T22:05:39.313Z,14.60
2022-08-10T22:08:40.588Z,14.50
2022-08-10T22:11:37.540Z,14.40
2022-08-10T22:14:25.753Z,14.40
2022-08-10T22:17:59.971Z,14.30
2022-08-10T22:23:43.246Z,14.10
2022-08-10T22:26:35.698Z,14.10
2022-08-10T22:29:25.156Z,14.00
2022-08-10T22:31:25.744Z,14.60
2022-08-10T22:31:28.639Z,14.30
2022-08-10T22:32:32.917Z,13.90
2022-08-10T22:35:33.445Z,13.80
2022-08-10T22:38:25.033Z,13.70
2022-08-10T22:41:11.654Z,13.70
2022-08-10T22:43:58.579Z,13.60
2022-08-10T22:46:47.258Z,13.60
2022-08-10T22:49:21.169Z,13.50
2022-08-10T22:51:54.048Z,13.40
2022-08-10T22:54:42.343Z,13.40
2022-08-10T22:57:30.741Z,13.30
2022-08-10T23:00:00.068Z,13.30
2022-08-10T23:02:33.489Z,13.20
2022-08-10T23:05:07.899Z,13.30
2022-08-10T23:07:43.561Z,13.30
2022-08-10T23:10:14.169Z,13.30
2022-08-10T23:12:45.044Z,13.20
2022-08-10T23:15:35.728Z,13.20
2022-08-10T23:18:22.370Z,13.20
2022-08-10T23:20:52.178Z,13.20
2022-08-10T23:23:24.381Z,13.10
2022-08-10T23:25:56.715Z,13.10
2022-08-10T23:28:38.954Z,13.10
2022-08-10T23:32:00.890Z,13.10
2022-08-10T23:34:07.566Z,13.00
2022-08-10T23:36:38.860Z,13.10
2022-08-10T23:39:25.457Z,13.10
2022-08-10T23:42:00.739Z,13.10
2022-08-10T23:44:38.349Z,13.10
2022-08-10T23:47:08.064Z,13.20
2022-08-10T23:52:10.433Z,13.30
2022-08-10T23:54:44.756Z,13.30
2022-08-10T23:57:16.423Z,13.30
2022-08-10T23:59:50.333Z,13.20
